Time;durP1;ratioP1;P1;durP2;ratioP2;P2;SDS_P1;SDS_P2;PMS_P1;PMS_P2;Temp;Humidity;BMP_temperature;BMP_pressure;BME280_temperature;BME280_humidity;BME280_pressure;Samples;Min_cycle;Max_cycle;Signal;HPM_P1;HPM_P2
2024/04/04 00:01:43;;;;;;;;;;;20.20;52.80;;;;;;1583951;74;726;-67
2024/04/04 00:03:46;;;;;;;;;;;20.30;52.80;;;;;;1571726;74;721;-67
2024/04/04 00:05:51;;;;;;;;;;;20.30;52.90;;;;;;1579454;74;1421;-67
2024/04/04 00:07:53;;;;;;;;;;;20.20;52.70;;;;;;1572431;74;1192;-69
2024/04/04 00:09:55;;;;;;;;;;;20.20;52.70;;;;;;1582000;74;773;-68
2024/04/04 00:11:57;;;;;;;;;;;20.30;52.80;;;;;;1582324;74;707;-68
2024/04/04 00:13:58;;;;;;;;;;;20.30;52.80;;;;;;1568051;74;1927;-69
2024/04/04 00:16:00;;;;;;;;;;;20.30;52.90;;;;;;1572101;74;716;-67
2024/04/04 00:18:02;;;;;;;;;;;20.20;52.80;;;;;;1574704;74;1111;-68
2024/04/04 00:20:04;;;;;;;;;;;20.30;52.90;;;;;;1575641;74;722;-68
2024/04/04 00:22:06;;;;;;;;;;;20.20;52.80;;;;;;1572757;74;689;-68
2024/04/04 00:24:09;;;;;;;;;;;20.30;52.80;;;;;;1573745;74;719;-67
2024/04/04 00:26:10;;;;;;;;;;;20.30;52.90;;;;;;1566387;74;728;-67
2024/04/04 00:28:12;;;;;;;;;;;20.30;53.00;;;;;;1573933;74;1561;-67
2024/04/04 00:30:14;;;;;;;;;;;20.30;53.00;;;;;;1577057;74;693;-66
2024/04/04 00:32:16;;;;;;;;;;;20.30;53.10;;;;;;1580892;74;721;-68
2024/04/04 00:34:19;;;;;;;;;;;20.20;52.80;;;;;;1575755;74;1944;-68
2024/04/04 00:36:21;;;;;;;;;;;20.30;53.00;;;;;;1573932;74;752;-68
2024/04/04 00:38:23;;;;;;;;;;;20.30;53.00;;;;;;1581334;74;695;-68
2024/04/04 00:40:25;;;;;;;;;;;20.30;53.00;;;;;;1591870;74;739;-68
2024/04/04 00:42:27;;;;;;;;;;;20.30;53.10;;;;;;1582547;74;1547;-67
2024/04/04 00:44:29;;;;;;;;;;;20.30;53.10;;;;;;1570122;74;670;-68
2024/04/04 00:46:31;;;;;;;;;;;20.30;53.10;;;;;;1580374;74;1125;-69
2024/04/04 00:48:32;;;;;;;;;;;20.30;53.10;;;;;;1579418;74;795;-69
2024/04/04 00:50:34;;;;;;;;;;;20.20;53.00;;;;;;1587580;74;737;-67
2024/04/04 00:52:36;;;;;;;;;;;20.30;53.10;;;;;;1577364;74;771;-67
2024/04/04 00:54:40;;;;;;;;;;;20.20;53.00;;;;;;1575469;74;1950;-67
2024/04/04 00:56:42;;;;;;;;;;;20.30;53.10;;;;;;1574311;74;1762;-66
2024/04/04 00:58:44;;;;;;;;;;;20.20;52.90;;;;;;1563752;74;736;-69
2024/04/04 01:00:46;;;;;;;;;;;20.30;53.10;;;;;;1572962;74;830;-67
2024/04/04 01:02:47;;;;;;;;;;;20.20;52.90;;;;;;1578641;74;806;-67
2024/04/04 01:04:49;;;;;;;;;;;20.30;53.10;;;;;;1578723;74;863;-67
2024/04/04 01:06:51;;;;;;;;;;;20.30;53.10;;;;;;1571219;74;1183;-67
2024/04/04 01:08:53;;;;;;;;;;;20.30;53.10;;;;;;1568904;74;1469;-68
2024/04/04 01:10:55;;;;;;;;;;;20.30;53.00;;;;;;1570649;74;714;-67
2024/04/04 01:12:57;;;;;;;;;;;20.30;53.10;;;;;;1574197;74;875;-67
2024/04/04 01:14:59;;;;;;;;;;;20.30;53.10;;;;;;1579886;74;1937;-70
2024/04/04 01:17:01;;;;;;;;;;;20.30;53.10;;;;;;1575411;74;1144;-67
2024/04/04 01:19:02;;;;;;;;;;;20.30;53.10;;;;;;1575925;74;817;-65
2024/04/04 01:21:04;;;;;;;;;;;20.20;53.10;;;;;;1576442;74;746;-68
2024/04/04 01:23:06;;;;;;;;;;;20.20;53.10;;;;;;1568720;74;1532;-68
2024/04/04 01:25:08;;;;;;;;;;;20.20;53.10;;;;;;1570773;74;778;-67
2024/04/04 01:27:10;;;;;;;;;;;20.30;53.20;;;;;;1566145;74;1127;-71
2024/04/04 01:29:12;;;;;;;;;;;20.30;53.20;;;;;;1573303;74;803;-69
2024/04/04 01:31:14;;;;;;;;;;;20.30;53.20;;;;;;1576288;74;745;-67
2024/04/04 01:33:16;;;;;;;;;;;20.30;53.30;;;;;;1578360;74;690;-68
2024/04/04 01:35:18;;;;;;;;;;;20.30;53.20;;;;;;1578283;74;1929;-67
2024/04/04 01:37:19;;;;;;;;;;;20.30;53.20;;;;;;1572143;74;1608;-67
2024/04/04 01:39:21;;;;;;;;;;;20.20;53.10;;;;;;1581398;74;660;-67
2024/04/04 01:41:23;;;;;;;;;;;20.30;53.20;;;;;;1571043;74;779;-68
2024/04/04 01:43:25;;;;;;;;;;;20.30;53.20;;;;;;1572953;74;688;-67
2024/04/04 01:45:27;;;;;;;;;;;20.30;53.20;;;;;;1570415;74;642;-71
2024/04/04 01:47:29;;;;;;;;;;;20.30;53.30;;;;;;1586805;74;1136;-68
2024/04/04 01:49:31;;;;;;;;;;;20.30;53.20;;;;;;1575705;74;770;-69
2024/04/04 01:51:33;;;;;;;;;;;20.30;53.30;;;;;;1573076;74;1516;-67
2024/04/04 01:53:36;;;;;;;;;;;20.30;53.20;;;;;;1575746;74;790;-68
2024/04/04 01:55:38;;;;;;;;;;;20.30;53.20;;;;;;1577134;74;1918;-68
2024/04/04 01:57:40;;;;;;;;;;;20.30;53.20;;;;;;1576275;74;1134;-68
2024/04/04 01:59:42;;;;;;;;;;;20.30;53.20;;;;;;1578077;74;761;-67
2024/04/04 02:01:44;;;;;;;;;;;20.20;53.10;;;;;;1578456;74;820;-67
2024/04/04 02:03:45;;;;;;;;;;;20.30;53.20;;;;;;1576220;74;669;-68
2024/04/04 02:05:48;;;;;;;;;;;20.20;53.10;;;;;;1576781;74;1239;-68
2024/04/04 02:07:49;;;;;;;;;;;20.30;53.10;;;;;;1574471;74;1192;-68
2024/04/04 02:09:51;;;;;;;;;;;20.30;53.10;;;;;;1573178;74;770;-68
2024/04/04 02:11:53;;;;;;;;;;;20.30;53.20;;;;;;1576571;74;686;-68
2024/04/04 02:13:56;;;;;;;;;;;20.20;53.10;;;;;;1580873;74;723;-68
2024/04/04 02:15:58;;;;;;;;;;;20.30;53.20;;;;;;1575958;74;1907;-69
2024/04/04 02:18:00;;;;;;;;;;;20.30;53.20;;;;;;1571179;74;1137;-68
2024/04/04 02:20:02;;;;;;;;;;;20.30;53.20;;;;;;1583554;74;1572;-68
2024/04/04 02:22:04;;;;;;;;;;;20.30;53.20;;;;;;1570696;74;736;-68
2024/04/04 02:24:06;;;;;;;;;;;20.30;53.20;;;;;;1581372;74;759;-70
2024/04/04 02:26:08;;;;;;;;;;;20.30;53.20;;;;;;1578547;74;764;-68
2024/04/04 02:28:10;;;;;;;;;;;20.30;53.20;;;;;;1572827;74;1126;-68
2024/04/04 02:30:12;;;;;;;;;;;20.30;53.10;;;;;;1571620;74;800;-68
2024/04/04 02:32:14;;;;;;;;;;;20.30;53.20;;;;;;1574397;74;752;-67
2024/04/04 02:34:16;;;;;;;;;;;20.30;53.20;;;;;;1580239;74;1942;-68
2024/04/04 02:36:18;;;;;;;;;;;20.30;53.20;;;;;;1568652;74;795;-68
2024/04/04 02:38:21;;;;;;;;;;;20.20;53.10;;;;;;1579551;74;1084;-70
2024/04/04 02:40:23;;;;;;;;;;;20.20;53.10;;;;;;1572219;74;776;-67
2024/04/04 02:42:24;;;;;;;;;;;20.30;53.20;;;;;;1570753;74;762;-66
2024/04/04 02:44:26;;;;;;;;;;;20.30;53.20;;;;;;1580066;74;801;-68
2024/04/04 02:46:28;;;;;;;;;;;20.30;53.20;;;;;;1578850;74;1159;-68
2024/04/04 02:48:30;;;;;;;;;;;20.30;53.20;;;;;;1581601;74;1267;-66
2024/04/04 02:50:32;;;;;;;;;;;20.30;53.20;;;;;;1586293;74;701;-69
2024/04/04 02:52:34;;;;;;;;;;;20.30;53.20;;;;;;1575257;74;653;-68
2024/04/04 02:54:37;;;;;;;;;;;20.30;53.30;;;;;;1571997;74;1930;-68
2024/04/04 02:56:39;;;;;;;;;;;20.30;53.30;;;;;;1572230;74;1141;-69
2024/04/04 02:58:40;;;;;;;;;;;20.30;53.20;;;;;;1581606;74;690;-69
2024/04/04 03:00:42;;;;;;;;;;;20.30;53.40;;;;;;1566489;74;754;-66
2024/04/04 03:02:44;;;;;;;;;;;20.20;53.10;;;;;;1577560;74;1616;-67
2024/04/04 03:04:46;;;;;;;;;;;20.30;53.30;;;;;;1579783;74;735;-67
2024/04/04 03:06:49;;;;;;;;;;;20.30;53.40;;;;;;1571902;74;1168;-66
2024/04/04 03:08:51;;;;;;;;;;;20.20;53.20;;;;;;1565795;74;2194;-67
2024/04/04 03:10:53;;;;;;;;;;;20.30;53.40;;;;;;1570834;74;731;-69
2024/04/04 03:12:55;;;;;;;;;;;20.20;53.20;;;;;;1579041;74;775;-68
2024/04/04 03:14:57;;;;;;;;;;;20.30;53.40;;;;;;1572680;74;1932;-68
2024/04/04 03:16:59;;;;;;;;;;;20.20;53.20;;;;;;1567598;74;1574;-67
2024/04/04 03:19:01;;;;;;;;;;;20.30;53.40;;;;;;1583818;74;750;-67
2024/04/04 03:21:03;;;;;;;;;;;20.30;53.40;;;;;;1573505;74;753;-67
2024/04/04 03:23:05;;;;;;;;;;;20.30;53.30;;;;;;1566998;74;876;-66
2024/04/04 03:25:06;;;;;;;;;;;20.30;53.40;;;;;;1567814;74;671;-69
2024/04/04 03:27:08;;;;;;;;;;;20.20;53.20;;;;;;1580510;74;1142;-69
2024/04/04 03:29:10;;;;;;;;;;;20.30;53.40;;;;;;1571861;74;720;-69
2024/04/04 03:31:12;;;;;;;;;;;20.30;53.40;;;;;;1580379;74;1654;-67
2024/04/04 03:33:14;;;;;;;;;;;20.30;53.40;;;;;;1579933;74;725;-67
2024/04/04 03:35:16;;;;;;;;;;;20.30;53.30;;;;;;1586855;74;1956;-67
2024/04/04 03:37:18;;;;;;;;;;;20.30;53.40;;;;;;1571986;74;1131;-65
2024/04/04 03:39:20;;;;;;;;;;;20.20;53.20;;;;;;1580325;74;669;-67
2024/04/04 03:41:22;;;;;;;;;;;20.20;53.20;;;;;;1577438;74;520;-69
2024/04/04 03:43:23;;;;;;;;;;;20.20;53.20;;;;;;1576802;74;1131;-69
2024/04/04 03:45:25;;;;;;;;;;;20.20;53.20;;;;;;1580581;74;718;-67
2024/04/04 03:47:27;;;;;;;;;;;20.20;53.20;;;;;;1573440;74;1236;-68
2024/04/04 03:49:29;;;;;;;;;;;20.30;53.40;;;;;;1580489;74;778;-67
2024/04/04 03:51:31;;;;;;;;;;;20.20;53.20;;;;;;1577428;74;810;-67
2024/04/04 03:53:33;;;;;;;;;;;20.30;53.40;;;;;;1576282;74;813;-67
2024/04/04 03:55:35;;;;;;;;;;;20.30;53.40;;;;;;1565970;74;1938;-67
2024/04/04 03:57:37;;;;;;;;;;;20.30;53.40;;;;;;1580363;74;1544;-66
2024/04/04 03:59:39;;;;;;;;;;;20.20;53.20;;;;;;1584331;74;663;-66
2024/04/04 04:01:42;;;;;;;;;;;20.30;53.40;;;;;;1583889;74;808;-68
2024/04/04 04:03:44;;;;;;;;;;;20.30;53.30;;;;;;1570666;74;831;-67
2024/04/04 04:05:46;;;;;;;;;;;20.20;53.10;;;;;;1583050;74;793;-70
2024/04/04 04:07:48;;;;;;;;;;;20.20;53.20;;;;;;1580841;74;1171;-71
2024/04/04 04:09:50;;;;;;;;;;;20.30;53.40;;;;;;1539190;76;955;-71
2024/04/04 04:11:52;;;;;;;;;;;20.30;53.40;;;;;;1580322;74;1338;-72
2024/04/04 04:13:53;;;;;;;;;;;20.30;53.40;;;;;;1565419;74;713;-70
2024/04/04 04:16:01;;;;;;;;;;;20.30;53.30;;;;;;1576181;74;1924;-69
2024/04/04 04:18:02;;;;;;;;;;;20.30;53.20;;;;;;1566856;74;1424;-71
2024/04/04 04:21:17;;;;;;;;;;;20.30;53.20;;;;;;1573063;74;726;-66
2024/04/04 04:22:08;;;;;;;;;;;20.30;53.10;;;;;;1569000;74;1446;-67
2024/04/04 04:24:10;;;;;;;;;;;20.30;53.10;;;;;;1575737;74;844;-66
2024/04/04 04:26:11;;;;;;;;;;;20.30;53.00;;;;;;1574940;74;1530;-66
2024/04/04 04:28:13;;;;;;;;;;;20.20;52.80;;;;;;1576421;74;1119;-67
2024/04/04 04:30:15;;;;;;;;;;;20.30;53.00;;;;;;1578273;74;661;-67
2024/04/04 04:32:17;;;;;;;;;;;20.30;53.00;;;;;;1584643;74;789;-67
2024/04/04 04:34:19;;;;;;;;;;;20.30;52.90;;;;;;1577553;74;671;-67
2024/04/04 04:36:23;;;;;;;;;;;20.30;53.00;;;;;;1578589;74;1943;-65
2024/04/04 04:38:24;;;;;;;;;;;20.20;52.80;;;;;;1575280;74;716;-67
2024/04/04 04:40:26;;;;;;;;;;;20.20;52.80;;;;;;1579238;74;1269;-66
2024/04/04 04:42:28;;;;;;;;;;;20.20;52.80;;;;;;1577511;74;786;-66
2024/04/04 04:44:30;;;;;;;;;;;20.30;52.90;;;;;;1570932;74;673;-68
2024/04/04 04:46:32;;;;;;;;;;;20.30;52.90;;;;;;1583041;74;1152;-69
2024/04/04 04:48:34;;;;;;;;;;;20.30;53.00;;;;;;1577407;74;729;-65
2024/04/04 04:50:36;;;;;;;;;;;20.30;52.90;;;;;;1574094;74;833;-67
2024/04/04 04:52:38;;;;;;;;;;;20.30;53.10;;;;;;1587408;74;679;-67
2024/04/04 04:54:39;;;;;;;;;;;20.40;53.70;;;;;;1581291;74;1544;-67
2024/04/04 04:56:41;;;;;;;;;;;20.30;53.80;;;;;;1577644;74;1938;-67
2024/04/04 04:58:43;;;;;;;;;;;20.40;53.90;;;;;;1571038;74;697;-68
2024/04/04 05:00:45;;;;;;;;;;;20.30;54.20;;;;;;1571603;74;742;-69
2024/04/04 05:02:47;;;;;;;;;;;20.40;54.20;;;;;;1589514;74;829;-66
2024/04/04 05:04:49;;;;;;;;;;;20.30;54.20;;;;;;1571826;74;750;-67
2024/04/04 05:06:52;;;;;;;;;;;20.40;54.20;;;;;;1567030;74;1179;-66
2024/04/04 05:08:54;;;;;;;;;;;20.40;54.20;;;;;;1577248;74;1561;-68
2024/04/04 05:10:56;;;;;;;;;;;20.40;54.20;;;;;;1578354;74;743;-69
2024/04/04 05:12:58;;;;;;;;;;;20.40;54.20;;;;;;1577993;74;799;-65
2024/04/04 05:15:00;;;;;;;;;;;20.40;54.00;;;;;;1573780;74;931;-66
2024/04/04 05:17:02;;;;;;;;;;;20.40;54.20;;;;;;1569450;74;1937;-68
2024/04/04 05:19:03;;;;;;;;;;;20.30;54.30;;;;;;1571991;74;733;-66
2024/04/04 05:21:05;;;;;;;;;;;20.40;54.00;;;;;;1567791;74;742;-69
2024/04/04 05:23:07;;;;;;;;;;;20.40;54.10;;;;;;1569300;74;1531;-69
2024/04/04 05:25:14;;;;;;;;;;;20.40;53.20;;;;;;1546441;75;733;-69
2024/04/04 05:27:13;;;;;;;;;;;20.30;52.80;;;;;;1580992;74;1409;-68
2024/04/04 05:29:15;;;;;;;;;;;20.30;52.20;;;;;;1576975;74;692;-65
2024/04/04 05:31:17;;;;;;;;;;;20.30;52.10;;;;;;1578991;74;716;-67
2024/04/04 05:33:18;;;;;;;;;;;20.30;51.20;;;;;;1572580;74;685;-67
2024/04/04 05:35:20;;;;;;;;;;;20.30;51.10;;;;;;1576470;74;1924;-68
2024/04/04 05:37:22;;;;;;;;;;;20.20;50.80;;;;;;1563400;74;1543;-67
2024/04/04 05:39:24;;;;;;;;;;;20.20;50.10;;;;;;1571030;74;656;-66
2024/04/04 05:41:26;;;;;;;;;;;20.20;49.80;;;;;;1570292;74;673;-66
2024/04/04 05:43:29;;;;;;;;;;;20.20;49.80;;;;;;1569767;74;768;-66
2024/04/04 05:45:30;;;;;;;;;;;20.20;49.00;;;;;;1584282;74;763;-68
2024/04/04 05:47:32;;;;;;;;;;;20.20;48.90;;;;;;1578522;74;1155;-66
2024/04/04 05:49:34;;;;;;;;;;;20.20;48.80;;;;;;1570725;74;775;-63
2024/04/04 05:51:36;;;;;;;;;;;20.10;48.30;;;;;;1566578;74;1317;-66
2024/04/04 05:53:38;;;;;;;;;;;20.10;48.20;;;;;;1572148;74;729;-65
2024/04/04 05:55:40;;;;;;;;;;;20.10;47.30;;;;;;1576174;74;1929;-65
2024/04/04 05:57:44;;;;;;;;;;;20.00;48.20;;;;;;1560523;74;1149;-63
2024/04/04 05:59:46;;;;;;;;;;;20.00;47.90;;;;;;1583212;74;1873;-67
2024/04/04 06:01:48;;;;;;;;;;;20.10;47.40;;;;;;1574375;74;809;-68
2024/04/04 06:03:49;;;;;;;;;;;20.00;47.80;;;;;;1566875;74;778;-65
2024/04/04 06:05:51;;;;;;;;;;;20.00;47.40;;;;;;1568106;74;1591;-65
2024/04/04 06:07:53;;;;;;;;;;;20.00;47.30;;;;;;1568755;74;1136;-65
2024/04/04 06:09:55;;;;;;;;;;;20.10;47.30;;;;;;1572582;74;782;-66
2024/04/04 06:11:57;;;;;;;;;;;20.10;46.90;;;;;;1571762;74;905;-67
2024/04/04 06:13:59;;;;;;;;;;;20.00;47.30;;;;;;1575137;74;777;-66
2024/04/04 06:16:03;;;;;;;;;;;20.10;47.30;;;;;;1577798;74;1920;-67
2024/04/04 06:18:05;;;;;;;;;;;20.10;46.60;;;;;;1560335;74;2022;-67
2024/04/04 06:20:08;;;;;;;;;;;20.10;46.80;;;;;;1573097;74;776;-65
2024/04/04 06:22:09;;;;;;;;;;;20.00;46.90;;;;;;1565394;74;758;-66
2024/04/04 06:24:11;;;;;;;;;;;20.00;46.30;;;;;;1571988;74;736;-67
2024/04/04 06:26:13;;;;;;;;;;;20.00;45.60;;;;;;1571073;74;796;-66
2024/04/04 06:28:15;;;;;;;;;;;20.00;44.80;;;;;;1568810;74;1082;-66
2024/04/04 06:30:19;;;;;;;;;;;19.90;45.50;;;;;;1580076;74;781;-67
2024/04/04 06:32:21;;;;;;;;;;;19.90;45.40;;;;;;1569577;74;2103;-67
2024/04/04 06:34:23;;;;;;;;;;;19.90;45.50;;;;;;1577068;74;681;-65
2024/04/04 06:36:24;;;;;;;;;;;19.90;45.70;;;;;;1575564;74;1934;-65
2024/04/04 06:38:26;;;;;;;;;;;19.90;45.30;;;;;;1566400;74;792;-67
2024/04/04 06:40:31;;;;;;;;;;;19.80;45.60;;;;;;1578692;74;728;-68
2024/04/04 06:42:32;;;;;;;;;;;19.90;45.70;;;;;;1584591;74;1680;-66
2024/04/04 06:44:34;;;;;;;;;;;19.80;45.80;;;;;;1569724;74;800;-64
2024/04/04 06:46:36;;;;;;;;;;;19.90;45.20;;;;;;1578550;74;1547;-69
2024/04/04 06:48:40;;;;;;;;;;;19.80;45.90;;;;;;1574257;74;673;-67
2024/04/04 06:50:41;;;;;;;;;;;19.80;46.00;;;;;;1585147;74;1677;-70
2024/04/04 06:52:43;;;;;;;;;;;19.80;46.30;;;;;;1585254;74;797;-68
2024/04/04 06:54:45;;;;;;;;;;;19.80;46.40;;;;;;1581155;74;785;-68
2024/04/04 06:56:46;;;;;;;;;;;19.90;46.70;;;;;;1587023;74;1941;-68
2024/04/04 06:58:49;;;;;;;;;;;19.90;46.80;;;;;;1570324;74;730;-67
2024/04/04 07:00:57;;;;;;;;;;;19.90;47.00;;;;;;1568170;74;1555;-68
2024/04/04 07:02:58;;;;;;;;;;;19.90;47.00;;;;;;1572975;74;710;-69
2024/04/04 07:05:00;;;;;;;;;;;19.90;47.20;;;;;;1580739;74;728;-69
2024/04/04 07:07:02;;;;;;;;;;;19.90;47.20;;;;;;1577179;74;1199;-70
2024/04/04 07:09:06;;;;;;;;;;;19.90;47.30;;;;;;1579678;74;803;-67
2024/04/04 07:11:09;;;;;;;;;;;20.00;47.40;;;;;;1575602;74;1454;-69
2024/04/04 07:13:11;;;;;;;;;;;19.90;47.50;;;;;;1581724;74;637;-67
2024/04/04 07:15:13;;;;;;;;;;;20.00;47.50;;;;;;1566589;74;1619;-69
2024/04/04 07:17:15;;;;;;;;;;;20.00;47.60;;;;;;1583885;74;1941;-69
2024/04/04 07:19:17;;;;;;;;;;;20.00;47.60;;;;;;1577954;74;740;-69
2024/04/04 07:21:19;;;;;;;;;;;20.10;47.70;;;;;;1565102;74;682;-70
2024/04/04 07:23:21;;;;;;;;;;;20.10;47.80;;;;;;1577055;74;696;-68
2024/04/04 07:25:23;;;;;;;;;;;20.00;47.70;;;;;;1577989;74;648;-68
2024/04/04 07:27:25;;;;;;;;;;;20.10;47.80;;;;;;1578455;74;1126;-68
2024/04/04 07:29:27;;;;;;;;;;;20.10;47.80;;;;;;1573575;74;1578;-69
2024/04/04 07:31:28;;;;;;;;;;;20.10;47.90;;;;;;1575275;74;814;-68
2024/04/04 07:33:30;;;;;;;;;;;20.10;47.90;;;;;;1581491;74;708;-68
2024/04/04 07:35:32;;;;;;;;;;;20.10;47.90;;;;;;1577630;74;706;-70
2024/04/04 07:37:34;;;;;;;;;;;20.10;47.90;;;;;;1566519;74;1932;-69
2024/04/04 07:39:36;;;;;;;;;;;20.20;48.00;;;;;;1579050;74;756;-70
2024/04/04 07:41:38;;;;;;;;;;;20.10;47.90;;;;;;1583350;74;674;-71
2024/04/04 07:43:40;;;;;;;;;;;20.20;48.00;;;;;;1569153;74;1588;-70
2024/04/04 07:45:42;;;;;;;;;;;20.10;48.00;;;;;;1580761;74;836;-70
2024/04/04 07:47:44;;;;;;;;;;;20.10;48.00;;;;;;1572720;74;1249;-70
2024/04/04 07:49:46;;;;;;;;;;;20.20;48.00;;;;;;1581190;74;743;-69
2024/04/04 07:51:48;;;;;;;;;;;20.20;48.10;;;;;;1578029;74;725;-71
2024/04/04 07:53:50;;;;;;;;;;;20.20;48.10;;;;;;1565597;74;778;-71
2024/04/04 07:55:52;;;;;;;;;;;20.20;48.10;;;;;;1573595;74;707;-72
2024/04/04 07:57:53;;;;;;;;;;;20.20;48.00;;;;;;1573706;74;1920;-70
2024/04/04 07:59:55;;;;;;;;;;;20.20;47.80;;;;;;1575083;74;752;-70
2024/04/04 08:01:57;;;;;;;;;;;20.30;47.90;;;;;;1590632;74;803;-70
2024/04/04 08:03:59;;;;;;;;;;;20.30;47.60;;;;;;1586041;74;756;-70
2024/04/04 08:06:01;;;;;;;;;;;20.30;47.70;;;;;;1577972;74;726;-71
2024/04/04 08:08:03;;;;;;;;;;;20.60;48.00;;;;;;1571580;74;1145;-70
2024/04/04 08:10:08;;;;;;;;;;;20.20;47.80;;;;;;1574686;74;803;-69
2024/04/04 08:12:10;;;;;;;;;;;20.20;47.80;;;;;;1571647;74;1646;-69
2024/04/04 08:14:12;;;;;;;;;;;20.30;47.90;;;;;;1571204;74;730;-68
2024/04/04 08:16:14;;;;;;;;;;;20.30;47.70;;;;;;1567614;74;689;-69
2024/04/04 08:18:16;;;;;;;;;;;20.30;47.50;;;;;;1581475;74;1140;-70
2024/04/04 08:20:18;;;;;;;;;;;20.20;47.40;;;;;;1580285;74;743;-70
2024/04/04 08:22:20;;;;;;;;;;;20.30;47.60;;;;;;1581163;74;690;-69
2024/04/04 08:24:22;;;;;;;;;;;20.30;47.60;;;;;;1565404;74;688;-71
2024/04/04 08:26:25;;;;;;;;;;;20.30;47.40;;;;;;1576440;74;697;-69
2024/04/04 08:28:27;;;;;;;;;;;20.30;47.40;;;;;;1585560;74;608;-71
2024/04/04 08:30:29;;;;;;;;;;;20.30;47.50;;;;;;1582020;74;717;-70
2024/04/04 08:32:31;;;;;;;;;;;20.30;47.60;;;;;;1579096;74;740;-71
2024/04/04 08:34:34;;;;;;;;;;;20.30;47.50;;;;;;1574118;74;688;-70
2024/04/04 08:36:35;;;;;;;;;;;20.30;47.50;;;;;;1563980;74;1908;-70
2024/04/04 08:38:38;;;;;;;;;;;20.30;47.50;;;;;;1574374;74;778;-70
2024/04/04 08:40:40;;;;;;;;;;;20.30;47.50;;;;;;1573264;74;876;-70
2024/04/04 08:42:42;;;;;;;;;;;20.30;47.40;;;;;;1569072;74;713;-68
2024/04/04 08:44:44;;;;;;;;;;;20.30;47.50;;;;;;1577206;74;804;-69
2024/04/04 08:46:46;;;;;;;;;;;20.30;47.50;;;;;;1572880;74;1172;-68
2024/04/04 08:48:49;;;;;;;;;;;20.30;47.50;;;;;;1580963;74;664;-69
2024/04/04 08:50:51;;;;;;;;;;;20.30;47.50;;;;;;1556111;75;897;-69
2024/04/04 08:52:53;;;;;;;;;;;20.30;47.60;;;;;;1573691;74;805;-69
2024/04/04 08:54:55;;;;;;;;;;;20.40;47.60;;;;;;1565464;74;806;-70
2024/04/04 08:56:57;;;;;;;;;;;20.30;47.60;;;;;;1573414;74;1919;-71
2024/04/04 08:58:59;;;;;;;;;;;20.30;47.50;;;;;;1576523;74;711;-70
2024/04/04 09:01:01;;;;;;;;;;;20.30;47.50;;;;;;1580073;74;726;-68
2024/04/04 09:03:03;;;;;;;;;;;20.30;47.60;;;;;;1586494;74;708;-68
2024/04/04 09:05:06;;;;;;;;;;;20.40;47.50;;;;;;1570370;74;773;-71
2024/04/04 09:07:08;;;;;;;;;;;20.30;47.50;;;;;;1567797;74;1192;-67
2024/04/04 09:09:11;;;;;;;;;;;20.40;47.60;;;;;;1569025;74;883;-68
2024/04/04 09:11:13;;;;;;;;;;;20.30;47.60;;;;;;1567981;74;769;-68
2024/04/04 09:13:15;;;;;;;;;;;20.30;47.50;;;;;;1574107;74;828;-67
2024/04/04 09:15:19;;;;;;;;;;;20.30;47.50;;;;;;1563021;74;768;-67
2024/04/04 09:17:20;;;;;;;;;;;20.30;47.60;;;;;;1569199;74;1930;-66
2024/04/04 09:19:23;;;;;;;;;;;20.30;47.60;;;;;;1575489;74;763;-68
2024/04/04 09:21:26;;;;;;;;;;;20.40;47.60;;;;;;1564703;74;742;-69
2024/04/04 09:23:30;;;;;;;;;;;20.30;47.50;;;;;;1572555;74;881;-68
2024/04/04 09:25:32;;;;;;;;;;;20.40;47.50;;;;;;1575220;74;896;-66
2024/04/04 09:27:34;;;;;;;;;;;20.30;47.40;;;;;;1572336;74;1178;-67
2024/04/04 09:29:36;;;;;;;;;;;20.30;47.40;;;;;;1567918;74;722;-69
2024/04/04 09:31:38;;;;;;;;;;;20.30;47.40;;;;;;1572991;74;716;-68
2024/04/04 09:33:40;;;;;;;;;;;20.40;47.40;;;;;;1573937;74;838;-69
2024/04/04 09:35:42;;;;;;;;;;;20.30;47.30;;;;;;1570354;74;704;-67
2024/04/04 09:37:44;;;;;;;;;;;20.30;47.30;;;;;;1573802;74;1925;-67
2024/04/04 09:39:46;;;;;;;;;;;20.40;47.40;;;;;;1578035;74;673;-68
2024/04/04 09:41:48;;;;;;;;;;;20.30;47.20;;;;;;1565023;74;896;-67
2024/04/04 09:43:54;;;;;;;;;;;20.40;47.20;;;;;;1568866;74;1455;-67
2024/04/04 09:45:54;;;;;;;;;;;20.30;47.20;;;;;;1557699;74;3660;-65
2024/04/04 09:47:55;;;;;;;;;;;20.30;47.20;;;;;;1530420;74;3829;-68
2024/04/04 09:49:58;;;;;;;;;;;20.30;47.20;;;;;;1535016;76;1554;-68
2024/04/04 09:52:01;;;;;;;;;;;20.30;47.20;;;;;;1505237;77;1575;-67
2024/04/04 09:54:03;;;;;;;;;;;20.40;47.20;;;;;;1523839;77;1540;-67
2024/04/04 09:56:05;;;;;;;;;;;20.30;47.20;;;;;;1527122;77;1614;-67
2024/04/04 09:58:07;;;;;;;;;;;20.40;47.10;;;;;;1526007;77;1956;-68
2024/04/04 10:00:22;;;;;;;;;;;20.40;47.10;;;;;;1535684;76;664;-67
2024/04/04 10:02:19;;;;;;;;;;;20.40;47.10;;;;;;1534913;76;1593;-69
2024/04/04 10:04:21;;;;;;;;;;;20.30;47.10;;;;;;1537472;76;1585;-68
2024/04/04 10:06:31;;;;;;;;;;;20.30;47.10;;;;;;1534332;76;744;-65
2024/04/04 10:08:33;;;;;;;;;;;20.30;47.10;;;;;;1534178;76;1913;-68
2024/04/04 10:10:35;;;;;;;;;;;20.30;47.10;;;;;;1530754;76;761;-67
2024/04/04 10:12:42;;;;;;;;;;;20.30;47.10;;;;;;1532140;76;792;-69
2024/04/04 10:14:58;;;;;;;;;;;20.30;47.10;;;;;;1531151;76;931;-66
2024/04/04 10:16:56;;;;;;;;;;;20.30;47.10;;;;;;1530378;76;1576;-68
2024/04/04 10:19:00;;;;;;;;;;;20.30;47.10;;;;;;1540685;76;1552;-66
2024/04/04 10:21:02;;;;;;;;;;;20.40;47.10;;;;;;1544912;75;1902;-69
2024/04/04 10:23:08;;;;;;;;;;;20.30;47.10;;;;;;1542998;76;688;-68
2024/04/04 10:25:10;;;;;;;;;;;20.30;47.10;;;;;;1545979;76;1022;-68
2024/04/04 10:27:12;;;;;;;;;;;20.40;47.10;;;;;;1543896;76;1195;-67
2024/04/04 10:29:14;;;;;;;;;;;20.30;47.10;;;;;;1540876;75;752;-69
2024/04/04 10:31:16;;;;;;;;;;;20.30;47.10;;;;;;1544970;75;1203;-66
2024/04/04 10:33:18;;;;;;;;;;;20.30;47.10;;;;;;1551456;75;1509;-67
2024/04/04 10:35:20;;;;;;;;;;;20.20;46.90;;;;;;1547658;75;669;-70
2024/04/04 10:37:22;;;;;;;;;;;20.30;47.00;;;;;;1541903;75;1932;-69
2024/04/04 10:39:24;;;;;;;;;;;20.40;47.00;;;;;;1544037;75;745;-68
2024/04/04 10:41:25;;;;;;;;;;;20.30;47.00;;;;;;1545514;75;755;-68
2024/04/04 10:43:27;;;;;;;;;;;20.20;46.80;;;;;;1547506;76;774;-69
2024/04/04 10:45:29;;;;;;;;;;;20.30;47.00;;;;;;1541630;75;1525;-69
2024/04/04 10:47:31;;;;;;;;;;;20.30;47.00;;;;;;1543276;75;1172;-72
2024/04/04 10:49:33;;;;;;;;;;;20.30;47.00;;;;;;1537259;75;801;-67
2024/04/04 10:51:36;;;;;;;;;;;20.30;47.00;;;;;;1546050;76;675;-67
2024/04/04 10:53:38;;;;;;;;;;;20.40;47.00;;;;;;1544915;76;840;-68
2024/04/04 10:55:40;;;;;;;;;;;20.30;47.00;;;;;;1545873;76;655;-70
2024/04/04 10:57:41;;;;;;;;;;;20.30;46.90;;;;;;1547509;76;1962;-71
2024/04/04 10:59:43;;;;;;;;;;;20.80;47.10;;;;;;1539361;75;1529;-69
2024/04/04 11:01:48;;;;;;;;;;;20.40;47.00;;;;;;1547010;75;843;-69
2024/04/04 11:03:53;;;;;;;;;;;20.40;46.90;;;;;;1542908;75;706;-69
2024/04/04 11:05:55;;;;;;;;;;;20.30;47.00;;;;;;1522344;76;1412;-70
2024/04/04 11:08:02;;;;;;;;;;;20.30;47.00;;;;;;1547040;76;1160;-68
2024/04/04 11:10:05;;;;;;;;;;;20.30;47.00;;;;;;1536036;76;694;-67
2024/04/04 11:12:09;;;;;;;;;;;20.40;47.00;;;;;;1533813;76;573;-70
2024/04/04 11:14:11;;;;;;;;;;;20.30;47.00;;;;;;1536543;76;1419;-70
2024/04/04 11:16:13;;;;;;;;;;;20.40;47.00;;;;;;1534754;76;699;-70
2024/04/04 11:18:15;;;;;;;;;;;20.30;46.90;;;;;;1536147;76;1936;-71
2024/04/04 11:20:17;;;;;;;;;;;20.30;46.90;;;;;;1535606;76;752;-68
2024/04/04 11:22:19;;;;;;;;;;;20.30;46.90;;;;;;1533488;76;769;-69
2024/04/04 11:24:22;;;;;;;;;;;20.30;47.00;;;;;;1534934;76;756;-72
2024/04/04 11:26:24;;;;;;;;;;;20.30;47.00;;;;;;1534116;76;1512;-68
2024/04/04 11:28:26;;;;;;;;;;;20.30;47.00;;;;;;1537004;76;1569;-71
2024/04/04 11:30:27;;;;;;;;;;;20.30;47.00;;;;;;1533713;76;790;-69
2024/04/04 11:32:30;;;;;;;;;;;20.30;47.00;;;;;;1539562;76;826;-70
2024/04/04 11:34:32;;;;;;;;;;;20.30;47.00;;;;;;1538396;76;750;-69
2024/04/04 11:36:34;;;;;;;;;;;20.30;46.90;;;;;;1540343;76;1190;-69
2024/04/04 11:38:36;;;;;;;;;;;20.30;47.00;;;;;;1538407;76;1944;-69
2024/04/04 11:40:38;;;;;;;;;;;20.40;47.00;;;;;;1538682;76;1508;-67
2024/04/04 11:42:40;;;;;;;;;;;20.30;47.00;;;;;;1537194;76;1567;-70
2024/04/04 11:44:43;;;;;;;;;;;20.30;47.00;;;;;;1536951;76;743;-65
2024/04/04 11:46:45;;;;;;;;;;;20.30;47.00;;;;;;1533462;76;1106;-70
2024/04/04 11:48:47;;;;;;;;;;;20.30;47.00;;;;;;1534721;76;978;-68
2024/04/04 11:50:49;;;;;;;;;;;20.30;47.00;;;;;;1537003;76;785;-67
2024/04/04 11:52:51;;;;;;;;;;;20.40;47.00;;;;;;1536205;76;753;-68
2024/04/04 11:54:53;;;;;;;;;;;20.30;47.00;;;;;;1533429;76;1528;-69
2024/04/04 11:56:55;;;;;;;;;;;20.30;47.00;;;;;;1532644;76;1581;-69
2024/04/04 11:58:57;;;;;;;;;;;20.30;47.00;;;;;;1534153;76;1936;-69
2024/04/04 12:00:59;;;;;;;;;;;20.30;47.00;;;;;;1541270;76;754;-70
2024/04/04 12:03:03;;;;;;;;;;;20.40;47.00;;;;;;1540612;76;608;-68
2024/04/04 12:05:08;;;;;;;;;;;20.40;47.10;;;;;;1539809;76;2026;-68
2024/04/04 12:07:10;;;;;;;;;;;20.30;47.10;;;;;;1544726;75;1150;-68
2024/04/04 12:09:13;;;;;;;;;;;20.40;47.10;;;;;;1541039;75;1522;-68